Terminal Aerodrome Forecast
Issued by NWS Springfield, MO

Home | Current Version | Previous Version | Text Only | Print | Product List | Glossary On
Versions: 1 2 3 4 5 6 7 8 9 10 11 12 13 14 15 16 17 18 19 20 21 22 23
000
FTUS43 KSGF 221100
TAFSGF
TAF
KSGF 221120Z 2212/2312 15012KT P6SM -DZ OVC015
     FM221500 15012KT 4SM -DZ BR VCSH OVC007
     FM221900 20012KT 4SM -DZ BR VCSH OVC007
     FM222300 24012KT P6SM OVC015
     FM230300 25012KT P6SM SCT025 BKN100=

USA.gov is the U.S. government's official web portal to all federal, state and local government web resources and services.